sensor_id;sensor_type;location;lat;lon;timestamp;temperature;humidity
8537;DHT22;4306;50.210;10.628;2023-03-14T00:00:10;9.70;99.90
8537;DHT22;4306;50.210;10.628;2023-03-14T00:02:38;9.70;99.90
8537;DHT22;4306;50.210;10.628;2023-03-14T00:05:06;9.70;99.90
8537;DHT22;4306;50.210;10.628;2023-03-14T00:07:34;9.70;99.90
8537;DHT22;4306;50.210;10.628;2023-03-14T00:10:03;9.60;99.90
8537;DHT22;4306;50.210;10.628;2023-03-14T00:12:31;9.50;99.90
8537;DHT22;4306;50.210;10.628;2023-03-14T00:14:58;9.50;99.90
8537;DHT22;4306;50.210;10.628;2023-03-14T00:17:29;9.50;99.90
8537;DHT22;4306;50.210;10.628;2023-03-14T00:19:57;9.50;99.90
8537;DHT22;4306;50.210;10.628;2023-03-14T00:22:29;9.60;99.90
8537;DHT22;4306;50.210;10.628;2023-03-14T00:24:56;9.50;99.90
8537;DHT22;4306;50.210;10.628;2023-03-14T00:27:23;9.50;99.90
8537;DHT22;4306;50.210;10.628;2023-03-14T00:29:50;9.50;99.90
8537;DHT22;4306;50.210;10.628;2023-03-14T00:32:17;9.50;99.90
8537;DHT22;4306;50.210;10.628;2023-03-14T00:34:44;9.60;99.90
8537;DHT22;4306;50.210;10.628;2023-03-14T00:37:12;9.40;99.90
8537;DHT22;4306;50.210;10.628;2023-03-14T00:39:38;9.40;99.90
8537;DHT22;4306;50.210;10.628;2023-03-14T00:42:05;9.40;99.90
8537;DHT22;4306;50.210;10.628;2023-03-14T00:44:32;9.40;99.90
8537;DHT22;4306;50.210;10.628;2023-03-14T00:46:59;9.40;99.90
8537;DHT22;4306;50.210;10.628;2023-03-14T00:49:26;9.40;99.90
8537;DHT22;4306;50.210;10.628;2023-03-14T00:51:53;9.40;99.90
8537;DHT22;4306;50.210;10.628;2023-03-14T00:54:21;9.40;99.90
8537;DHT22;4306;50.210;10.628;2023-03-14T00:56:48;9.30;99.90
8537;DHT22;4306;50.210;10.628;2023-03-14T00:59:15;9.40;99.90
8537;DHT22;4306;50.210;10.628;2023-03-14T01:01:43;9.30;99.90
8537;DHT22;4306;50.210;10.628;2023-03-14T01:04:10;9.30;99.90
8537;DHT22;4306;50.210;10.628;2023-03-14T01:06:36;9.30;99.90
8537;DHT22;4306;50.210;10.628;2023-03-14T01:09:04;9.30;99.90
8537;DHT22;4306;50.210;10.628;2023-03-14T01:11:34;9.40;99.90
8537;DHT22;4306;50.210;10.628;2023-03-14T01:14:01;9.30;99.90
8537;DHT22;4306;50.210;10.628;2023-03-14T01:16:31;9.20;99.90
8537;DHT22;4306;50.210;10.628;2023-03-14T01:18:57;9.70;99.90
8537;DHT22;4306;50.210;10.628;2023-03-14T01:21:26;9.30;99.90
8537;DHT22;4306;50.210;10.628;2023-03-14T01:23:54;9.30;99.90
8537;DHT22;4306;50.210;10.628;2023-03-14T01:26:23;9.30;99.90
8537;DHT22;4306;50.210;10.628;2023-03-14T01:28:53;9.50;99.90
8537;DHT22;4306;50.210;10.628;2023-03-14T01:31:20;9.30;99.90
8537;DHT22;4306;50.210;10.628;2023-03-14T01:33:47;9.40;99.90
8537;DHT22;4306;50.210;10.628;2023-03-14T01:36:13;9.30;99.90
8537;DHT22;4306;50.210;10.628;2023-03-14T01:38:41;9.40;99.90
8537;DHT22;4306;50.210;10.628;2023-03-14T01:41:11;9.40;99.90
8537;DHT22;4306;50.210;10.628;2023-03-14T01:43:38;9.40;99.90
8537;DHT22;4306;50.210;10.628;2023-03-14T01:46:23;9.40;99.90
8537;DHT22;4306;50.210;10.628;2023-03-14T01:48:55;9.40;99.90
8537;DHT22;4306;50.210;10.628;2023-03-14T01:51:26;9.40;99.90
8537;DHT22;4306;50.210;10.628;2023-03-14T01:54:01;9.30;99.90
8537;DHT22;4306;50.210;10.628;2023-03-14T01:56:30;9.40;99.90
8537;DHT22;4306;50.210;10.628;2023-03-14T01:58:58;9.40;99.90
8537;DHT22;4306;50.210;10.628;2023-03-14T02:01:28;9.40;99.90
8537;DHT22;4306;50.210;10.628;2023-03-14T02:03:59;9.30;99.90
8537;DHT22;4306;50.210;10.628;2023-03-14T02:06:33;9.30;99.90
8537;DHT22;4306;50.210;10.628;2023-03-14T02:09:02;9.40;99.90
8537;DHT22;4306;50.210;10.628;2023-03-14T02:11:30;9.40;99.90
8537;DHT22;4306;50.210;10.628;2023-03-14T02:13:58;9.40;99.90
8537;DHT22;4306;50.210;10.628;2023-03-14T02:16:25;9.40;99.90
8537;DHT22;4306;50.210;10.628;2023-03-14T02:18:54;9.40;99.90
8537;DHT22;4306;50.210;10.628;2023-03-14T02:21:24;9.50;99.90
8537;DHT22;4306;50.210;10.628;2023-03-14T02:24:03;9.40;99.90
8537;DHT22;4306;50.210;10.628;2023-03-14T02:26:35;9.40;99.90
8537;DHT22;4306;50.210;10.628;2023-03-14T02:29:05;9.40;99.90
8537;DHT22;4306;50.210;10.628;2023-03-14T02:31:32;9.50;99.90
8537;DHT22;4306;50.210;10.628;2023-03-14T02:34:00;9.40;99.90
8537;DHT22;4306;50.210;10.628;2023-03-14T02:36:28;9.40;99.90
8537;DHT22;4306;50.210;10.628;2023-03-14T02:39:00;9.30;99.90
8537;DHT22;4306;50.210;10.628;2023-03-14T02:41:30;9.40;99.90
8537;DHT22;4306;50.210;10.628;2023-03-14T02:43:56;9.40;99.90
8537;DHT22;4306;50.210;10.628;2023-03-14T02:46:25;9.30;99.90
8537;DHT22;4306;50.210;10.628;2023-03-14T02:48:54;9.30;99.90
8537;DHT22;4306;50.210;10.628;2023-03-14T02:51:23;9.30;99.90
8537;DHT22;4306;50.210;10.628;2023-03-14T02:53:52;9.30;99.90
8537;DHT22;4306;50.210;10.628;2023-03-14T02:56:19;9.30;99.90
8537;DHT22;4306;50.210;10.628;2023-03-14T02:58:46;9.30;99.90
8537;DHT22;4306;50.210;10.628;2023-03-14T03:01:13;9.30;99.90
8537;DHT22;4306;50.210;10.628;2023-03-14T03:03:41;9.30;99.90
8537;DHT22;4306;50.210;10.628;2023-03-14T03:06:08;9.30;99.90
8537;DHT22;4306;50.210;10.628;2023-03-14T03:08:35;9.30;99.90
8537;DHT22;4306;50.210;10.628;2023-03-14T03:11:04;9.20;99.90
8537;DHT22;4306;50.210;10.628;2023-03-14T03:13:31;9.20;99.90
8537;DHT22;4306;50.210;10.628;2023-03-14T03:15:58;9.20;99.90
8537;DHT22;4306;50.210;10.628;2023-03-14T03:18:25;9.10;99.90
8537;DHT22;4306;50.210;10.628;2023-03-14T03:20:53;9.20;99.90
8537;DHT22;4306;50.210;10.628;2023-03-14T03:23:20;9.20;99.90
8537;DHT22;4306;50.210;10.628;2023-03-14T03:25:50;9.20;99.90
8537;DHT22;4306;50.210;10.628;2023-03-14T03:28:17;9.20;99.90
8537;DHT22;4306;50.210;10.628;2023-03-14T03:30:44;9.20;99.90
8537;DHT22;4306;50.210;10.628;2023-03-14T03:33:11;9.20;99.90
8537;DHT22;4306;50.210;10.628;2023-03-14T03:35:45;9.20;99.90
8537;DHT22;4306;50.210;10.628;2023-03-14T03:38:14;9.20;99.90
8537;DHT22;4306;50.210;10.628;2023-03-14T03:40:42;9.10;99.90
8537;DHT22;4306;50.210;10.628;2023-03-14T03:43:09;9.10;99.90
8537;DHT22;4306;50.210;10.628;2023-03-14T03:45:36;9.20;99.90
8537;DHT22;4306;50.210;10.628;2023-03-14T03:48:03;9.10;99.90
8537;DHT22;4306;50.210;10.628;2023-03-14T03:50:30;9.10;99.90
8537;DHT22;4306;50.210;10.628;2023-03-14T03:52:56;9.10;99.90
8537;DHT22;4306;50.210;10.628;2023-03-14T03:55:25;9.10;99.90
8537;DHT22;4306;50.210;10.628;2023-03-14T03:57:53;9.20;99.90
8537;DHT22;4306;50.210;10.628;2023-03-14T04:00:20;9.10;99.90
8537;DHT22;4306;50.210;10.628;2023-03-14T04:02:47;9.10;99.90
8537;DHT22;4306;50.210;10.628;2023-03-14T04:05:14;9.10;99.90
8537;DHT22;4306;50.210;10.628;2023-03-14T04:07:41;9.10;99.90
8537;DHT22;4306;50.210;10.628;2023-03-14T04:10:08;9.10;99.90
8537;DHT22;4306;50.210;10.628;2023-03-14T04:12:37;9.20;99.90
8537;DHT22;4306;50.210;10.628;2023-03-14T04:15:04;9.30;99.90
8537;DHT22;4306;50.210;10.628;2023-03-14T04:17:31;9.20;99.90
8537;DHT22;4306;50.210;10.628;2023-03-14T04:19:58;9.20;99.90
8537;DHT22;4306;50.210;10.628;2023-03-14T04:22:25;9.20;99.90
8537;DHT22;4306;50.210;10.628;2023-03-14T04:24:52;9.20;99.90
8537;DHT22;4306;50.210;10.628;2023-03-14T04:27:18;9.20;99.90
8537;DHT22;4306;50.210;10.628;2023-03-14T04:29:47;9.40;99.90
8537;DHT22;4306;50.210;10.628;2023-03-14T04:32:13;9.10;99.90
8537;DHT22;4306;50.210;10.628;2023-03-14T04:34:41;9.10;99.90
8537;DHT22;4306;50.210;10.628;2023-03-14T04:37:08;9.10;99.90
8537;DHT22;4306;50.210;10.628;2023-03-14T04:39:34;9.10;99.90
8537;DHT22;4306;50.210;10.628;2023-03-14T04:42:01;9.10;99.90
8537;DHT22;4306;50.210;10.628;2023-03-14T04:44:28;9.10;99.90
8537;DHT22;4306;50.210;10.628;2023-03-14T04:46:56;9.20;99.90
8537;DHT22;4306;50.210;10.628;2023-03-14T04:49:23;9.10;99.90
8537;DHT22;4306;50.210;10.628;2023-03-14T04:51:50;9.20;99.90
8537;DHT22;4306;50.210;10.628;2023-03-14T04:54:17;9.20;99.90
8537;DHT22;4306;50.210;10.628;2023-03-14T04:56:44;9.10;99.90
8537;DHT22;4306;50.210;10.628;2023-03-14T04:59:11;9.20;99.90
8537;DHT22;4306;50.210;10.628;2023-03-14T05:01:37;9.20;99.90
8537;DHT22;4306;50.210;10.628;2023-03-14T05:04:06;9.20;99.90
8537;DHT22;4306;50.210;10.628;2023-03-14T05:06:32;9.10;99.90
8537;DHT22;4306;50.210;10.628;2023-03-14T05:09:00;9.10;99.90
8537;DHT22;4306;50.210;10.628;2023-03-14T05:11:27;9.10;99.90
8537;DHT22;4306;50.210;10.628;2023-03-14T05:13:54;9.10;99.90
8537;DHT22;4306;50.210;10.628;2023-03-14T05:16:21;9.10;99.90
8537;DHT22;4306;50.210;10.628;2023-03-14T05:18:48;9.10;99.90
8537;DHT22;4306;50.210;10.628;2023-03-14T05:21:16;9.00;99.90
8537;DHT22;4306;50.210;10.628;2023-03-14T05:23:43;9.00;99.90
8537;DHT22;4306;50.210;10.628;2023-03-14T05:26:10;8.90;99.90
8537;DHT22;4306;50.210;10.628;2023-03-14T05:28:37;9.00;99.90
8537;DHT22;4306;50.210;10.628;2023-03-14T05:31:06;8.90;99.90
8537;DHT22;4306;50.210;10.628;2023-03-14T05:33:33;9.00;99.90
8537;DHT22;4306;50.210;10.628;2023-03-14T05:36:00;9.00;99.90
8537;DHT22;4306;50.210;10.628;2023-03-14T05:38:28;8.90;99.90
8537;DHT22;4306;50.210;10.628;2023-03-14T05:40:55;8.90;99.90
8537;DHT22;4306;50.210;10.628;2023-03-14T05:43:22;8.90;99.90
8537;DHT22;4306;50.210;10.628;2023-03-14T05:45:48;8.90;99.90
8537;DHT22;4306;50.210;10.628;2023-03-14T05:48:15;8.90;99.90
8537;DHT22;4306;50.210;10.628;2023-03-14T05:50:43;8.90;99.90
8537;DHT22;4306;50.210;10.628;2023-03-14T05:53:10;8.90;99.90
8537;DHT22;4306;50.210;10.628;2023-03-14T05:55:38;8.90;99.90
8537;DHT22;4306;50.210;10.628;2023-03-14T05:58:05;8.90;99.90
8537;DHT22;4306;50.210;10.628;2023-03-14T06:00:32;8.80;99.90
8537;DHT22;4306;50.210;10.628;2023-03-14T06:02:59;8.90;99.90
8537;DHT22;4306;50.210;10.628;2023-03-14T06:05:26;8.90;99.90
8537;DHT22;4306;50.210;10.628;2023-03-14T06:07:52;8.90;99.90
8537;DHT22;4306;50.210;10.628;2023-03-14T06:10:19;8.90;99.90
8537;DHT22;4306;50.210;10.628;2023-03-14T06:12:48;9.00;99.90
8537;DHT22;4306;50.210;10.628;2023-03-14T06:15:15;9.00;99.90
8537;DHT22;4306;50.210;10.628;2023-03-14T06:17:42;9.00;99.90
8537;DHT22;4306;50.210;10.628;2023-03-14T06:20:10;9.00;99.90
8537;DHT22;4306;50.210;10.628;2023-03-14T06:22:37;9.10;99.90
8537;DHT22;4306;50.210;10.628;2023-03-14T06:25:05;9.20;99.90
8537;DHT22;4306;50.210;10.628;2023-03-14T06:27:32;9.20;99.90
8537;DHT22;4306;50.210;10.628;2023-03-14T06:30:00;9.30;99.90
8537;DHT22;4306;50.210;10.628;2023-03-14T06:32:27;9.20;99.90
8537;DHT22;4306;50.210;10.628;2023-03-14T06:34:54;9.30;99.90
8537;DHT22;4306;50.210;10.628;2023-03-14T06:37:22;9.20;99.90
8537;DHT22;4306;50.210;10.628;2023-03-14T06:39:49;9.20;99.90
8537;DHT22;4306;50.210;10.628;2023-03-14T06:42:16;9.30;99.90
8537;DHT22;4306;50.210;10.628;2023-03-14T06:44:42;9.30;99.90
8537;DHT22;4306;50.210;10.628;2023-03-14T06:47:11;9.30;99.90
8537;DHT22;4306;50.210;10.628;2023-03-14T06:49:37;9.30;99.90
8537;DHT22;4306;50.210;10.628;2023-03-14T06:52:04;9.30;99.90
8537;DHT22;4306;50.210;10.628;2023-03-14T06:54:31;9.30;99.90
8537;DHT22;4306;50.210;10.628;2023-03-14T06:56:58;9.30;99.90
8537;DHT22;4306;50.210;10.628;2023-03-14T06:59:25;9.30;99.90
8537;DHT22;4306;50.210;10.628;2023-03-14T07:01:52;9.20;99.90
8537;DHT22;4306;50.210;10.628;2023-03-14T07:04:20;9.20;99.90
8537;DHT22;4306;50.210;10.628;2023-03-14T07:06:47;9.20;99.90
8537;DHT22;4306;50.210;10.628;2023-03-14T07:09:14;9.20;99.90
8537;DHT22;4306;50.210;10.628;2023-03-14T07:11:42;9.30;99.90
8537;DHT22;4306;50.210;10.628;2023-03-14T07:14:09;9.40;99.90
8537;DHT22;4306;50.210;10.628;2023-03-14T07:16:36;9.40;99.90
8537;DHT22;4306;50.210;10.628;2023-03-14T07:19:03;9.50;99.90
8537;DHT22;4306;50.210;10.628;2023-03-14T07:21:31;9.50;99.90
8537;DHT22;4306;50.210;10.628;2023-03-14T07:24:00;9.50;99.90
8537;DHT22;4306;50.210;10.628;2023-03-14T07:26:27;9.50;99.90
8537;DHT22;4306;50.210;10.628;2023-03-14T07:28:53;9.70;99.90
8537;DHT22;4306;50.210;10.628;2023-03-14T07:31:20;9.70;99.90
8537;DHT22;4306;50.210;10.628;2023-03-14T07:33:47;9.60;99.90
8537;DHT22;4306;50.210;10.628;2023-03-14T07:36:14;9.70;99.90
8537;DHT22;4306;50.210;10.628;2023-03-14T07:38:42;9.80;99.90
8537;DHT22;4306;50.210;10.628;2023-03-14T07:41:09;9.70;99.90
8537;DHT22;4306;50.210;10.628;2023-03-14T07:43:36;9.90;99.90
8537;DHT22;4306;50.210;10.628;2023-03-14T07:46:03;9.80;99.90
8537;DHT22;4306;50.210;10.628;2023-03-14T07:48:30;9.90;99.90
8537;DHT22;4306;50.210;10.628;2023-03-14T07:50:57;9.90;99.90
8537;DHT22;4306;50.210;10.628;2023-03-14T07:53:24;10.00;99.90
8537;DHT22;4306;50.210;10.628;2023-03-14T07:55:52;10.00;99.90
8537;DHT22;4306;50.210;10.628;2023-03-14T07:58:19;10.10;99.90
8537;DHT22;4306;50.210;10.628;2023-03-14T08:00:47;10.20;99.90
8537;DHT22;4306;50.210;10.628;2023-03-14T08:03:14;10.20;99.90
8537;DHT22;4306;50.210;10.628;2023-03-14T08:05:40;10.30;99.90
8537;DHT22;4306;50.210;10.628;2023-03-14T08:08:08;10.30;99.90
8537;DHT22;4306;50.210;10.628;2023-03-14T08:10:35;10.40;99.90
8537;DHT22;4306;50.210;10.628;2023-03-14T08:13:03;10.50;99.90
8537;DHT22;4306;50.210;10.628;2023-03-14T08:15:30;10.50;99.90
8537;DHT22;4306;50.210;10.628;2023-03-14T08:17:57;10.50;99.90
8537;DHT22;4306;50.210;10.628;2023-03-14T08:20:26;10.40;99.90
8537;DHT22;4306;50.210;10.628;2023-03-14T08:22:55;10.30;99.90
8537;DHT22;4306;50.210;10.628;2023-03-14T08:25:22;10.20;99.90
8537;DHT22;4306;50.210;10.628;2023-03-14T08:27:49;10.30;99.90
8537;DHT22;4306;50.210;10.628;2023-03-14T08:30:19;10.10;99.90
8537;DHT22;4306;50.210;10.628;2023-03-14T08:32:46;10.10;99.90
8537;DHT22;4306;50.210;10.628;2023-03-14T08:35:13;10.30;99.90
8537;DHT22;4306;50.210;10.628;2023-03-14T08:37:39;10.20;99.90
8537;DHT22;4306;50.210;10.628;2023-03-14T08:40:07;10.20;99.90
8537;DHT22;4306;50.210;10.628;2023-03-14T08:42:35;10.30;99.90
8537;DHT22;4306;50.210;10.628;2023-03-14T08:45:03;10.30;99.90
8537;DHT22;4306;50.210;10.628;2023-03-14T08:47:31;10.10;99.90
8537;DHT22;4306;50.210;10.628;2023-03-14T08:49:58;10.00;99.90
8537;DHT22;4306;50.210;10.628;2023-03-14T08:52:25;10.30;99.90
8537;DHT22;4306;50.210;10.628;2023-03-14T08:54:52;10.10;99.90
8537;DHT22;4306;50.210;10.628;2023-03-14T08:57:19;10.20;99.90
8537;DHT22;4306;50.210;10.628;2023-03-14T08:59:47;10.20;99.90
8537;DHT22;4306;50.210;10.628;2023-03-14T09:02:14;10.30;99.90
8537;DHT22;4306;50.210;10.628;2023-03-14T09:04:42;10.40;99.90
8537;DHT22;4306;50.210;10.628;2023-03-14T09:07:09;10.30;99.90
8537;DHT22;4306;50.210;10.628;2023-03-14T09:09:36;10.30;99.90
8537;DHT22;4306;50.210;10.628;2023-03-14T09:12:03;10.40;99.90
8537;DHT22;4306;50.210;10.628;2023-03-14T09:14:30;10.30;99.90
8537;DHT22;4306;50.210;10.628;2023-03-14T09:16:57;10.20;99.90
8537;DHT22;4306;50.210;10.628;2023-03-14T09:19:24;10.30;99.90
8537;DHT22;4306;50.210;10.628;2023-03-14T09:21:53;10.30;99.90
8537;DHT22;4306;50.210;10.628;2023-03-14T09:24:20;10.40;99.90
8537;DHT22;4306;50.210;10.628;2023-03-14T09:26:47;10.60;99.90
8537;DHT22;4306;50.210;10.628;2023-03-14T09:29:14;10.70;99.90
8537;DHT22;4306;50.210;10.628;2023-03-14T09:31:40;10.90;99.90
8537;DHT22;4306;50.210;10.628;2023-03-14T09:34:07;11.00;99.90
8537;DHT22;4306;50.210;10.628;2023-03-14T09:36:34;11.10;99.90
8537;DHT22;4306;50.210;10.628;2023-03-14T09:39:05;10.90;99.90
8537;DHT22;4306;50.210;10.628;2023-03-14T09:41:35;10.90;99.90
8537;DHT22;4306;50.210;10.628;2023-03-14T09:44:05;10.90;99.90
8537;DHT22;4306;50.210;10.628;2023-03-14T09:46:36;10.70;99.90
8537;DHT22;4306;50.210;10.628;2023-03-14T09:49:10;10.90;99.90
8537;DHT22;4306;50.210;10.628;2023-03-14T09:51:37;11.00;99.90
8537;DHT22;4306;50.210;10.628;2023-03-14T09:54:17;10.90;99.90
8537;DHT22;4306;50.210;10.628;2023-03-14T09:56:44;11.10;99.90
8537;DHT22;4306;50.210;10.628;2023-03-14T09:59:12;11.10;99.90
8537;DHT22;4306;50.210;10.628;2023-03-14T10:01:40;11.20;99.90
8537;DHT22;4306;50.210;10.628;2023-03-14T10:04:12;11.20;99.90
8537;DHT22;4306;50.210;10.628;2023-03-14T10:06:39;11.40;99.90
8537;DHT22;4306;50.210;10.628;2023-03-14T10:09:08;11.40;99.90
8537;DHT22;4306;50.210;10.628;2023-03-14T10:11:36;11.50;99.90
8537;DHT22;4306;50.210;10.628;2023-03-14T10:14:07;11.60;99.90
8537;DHT22;4306;50.210;10.628;2023-03-14T10:16:40;11.60;99.90
8537;DHT22;4306;50.210;10.628;2023-03-14T10:19:10;11.50;99.90
8537;DHT22;4306;50.210;10.628;2023-03-14T10:21:39;11.40;99.90
8537;DHT22;4306;50.210;10.628;2023-03-14T10:24:22;11.40;99.90
8537;DHT22;4306;50.210;10.628;2023-03-14T10:26:51;11.40;99.90
8537;DHT22;4306;50.210;10.628;2023-03-14T10:29:18;11.30;99.90
8537;DHT22;4306;50.210;10.628;2023-03-14T10:31:52;11.20;99.90
8537;DHT22;4306;50.210;10.628;2023-03-14T10:34:24;11.20;99.90
8537;DHT22;4306;50.210;10.628;2023-03-14T10:36:56;11.20;99.90
8537;DHT22;4306;50.210;10.628;2023-03-14T10:39:36;11.10;99.90
8537;DHT22;4306;50.210;10.628;2023-03-14T10:42:17;11.10;99.90
8537;DHT22;4306;50.210;10.628;2023-03-14T10:44:45;11.30;99.90
8537;DHT22;4306;50.210;10.628;2023-03-14T10:47:19;11.40;99.90
8537;DHT22;4306;50.210;10.628;2023-03-14T10:49:48;11.50;99.90
8537;DHT22;4306;50.210;10.628;2023-03-14T10:52:20;11.70;99.90
8537;DHT22;4306;50.210;10.628;2023-03-14T10:54:54;11.60;99.90
8537;DHT22;4306;50.210;10.628;2023-03-14T10:57:23;11.60;99.90
8537;DHT22;4306;50.210;10.628;2023-03-14T10:59:51;11.70;99.90
8537;DHT22;4306;50.210;10.628;2023-03-14T11:02:34;11.80;99.90
8537;DHT22;4306;50.210;10.628;2023-03-14T11:05:20;11.70;99.90
8537;DHT22;4306;50.210;10.628;2023-03-14T11:07:51;11.80;99.90
8537;DHT22;4306;50.210;10.628;2023-03-14T11:10:25;11.80;99.90
8537;DHT22;4306;50.210;10.628;2023-03-14T11:13:04;11.70;99.90
8537;DHT22;4306;50.210;10.628;2023-03-14T11:15:40;11.70;99.90
8537;DHT22;4306;50.210;10.628;2023-03-14T11:18:23;11.70;99.90
8537;DHT22;4306;50.210;10.628;2023-03-14T11:20:53;11.80;99.90
8537;DHT22;4306;50.210;10.628;2023-03-14T11:23:24;11.80;99.90
8537;DHT22;4306;50.210;10.628;2023-03-14T11:25:59;11.90;99.90
8537;DHT22;4306;50.210;10.628;2023-03-14T11:28:34;11.70;99.90
8537;DHT22;4306;50.210;10.628;2023-03-14T11:31:07;11.70;99.90
8537;DHT22;4306;50.210;10.628;2023-03-14T11:33:47;11.60;99.90
8537;DHT22;4306;50.210;10.628;2023-03-14T11:36:21;11.70;99.90
8537;DHT22;4306;50.210;10.628;2023-03-14T11:38:49;11.70;99.90
8537;DHT22;4306;50.210;10.628;2023-03-14T11:44:04;11.70;99.90
8537;DHT22;4306;50.210;10.628;2023-03-14T11:46:38;11.90;99.90
8537;DHT22;4306;50.210;10.628;2023-03-14T11:49:10;12.00;99.90
8537;DHT22;4306;50.210;10.628;2023-03-14T11:51:39;12.30;99.90
8537;DHT22;4306;50.210;10.628;2023-03-14T11:54:14;12.00;99.90
8537;DHT22;4306;50.210;10.628;2023-03-14T11:56:47;12.10;99.90
8537;DHT22;4306;50.210;10.628;2023-03-14T11:59:19;12.00;99.90
8537;DHT22;4306;50.210;10.628;2023-03-14T12:01:53;12.10;99.90
8537;DHT22;4306;50.210;10.628;2023-03-14T12:04:31;12.10;99.90
8537;DHT22;4306;50.210;10.628;2023-03-14T12:07:01;12.10;99.90
8537;DHT22;4306;50.210;10.628;2023-03-14T12:09:29;12.00;99.90
8537;DHT22;4306;50.210;10.628;2023-03-14T12:12:00;12.20;99.90
8537;DHT22;4306;50.210;10.628;2023-03-14T12:14:29;12.00;99.90
8537;DHT22;4306;50.210;10.628;2023-03-14T12:16:58;11.70;99.90
8537;DHT22;4306;50.210;10.628;2023-03-14T12:19:31;11.70;99.90
8537;DHT22;4306;50.210;10.628;2023-03-14T12:22:01;11.60;99.90
8537;DHT22;4306;50.210;10.628;2023-03-14T12:24:34;11.60;99.90
8537;DHT22;4306;50.210;10.628;2023-03-14T12:27:04;11.40;99.90
8537;DHT22;4306;50.210;10.628;2023-03-14T12:29:57;11.30;99.90
8537;DHT22;4306;50.210;10.628;2023-03-14T12:32:26;11.20;99.90
8537;DHT22;4306;50.210;10.628;2023-03-14T12:34:53;11.30;99.90
8537;DHT22;4306;50.210;10.628;2023-03-14T12:37:39;11.20;99.90
8537;DHT22;4306;50.210;10.628;2023-03-14T12:40:19;11.20;99.90
8537;DHT22;4306;50.210;10.628;2023-03-14T12:42:57;11.10;99.90
8537;DHT22;4306;50.210;10.628;2023-03-14T12:45:28;11.10;99.90
8537;DHT22;4306;50.210;10.628;2023-03-14T12:48:10;11.10;99.90
8537;DHT22;4306;50.210;10.628;2023-03-14T12:50:42;11.20;99.90
8537;DHT22;4306;50.210;10.628;2023-03-14T12:56:31;10.70;99.90
8537;DHT22;4306;50.210;10.628;2023-03-14T12:59:34;10.80;99.90
8537;DHT22;4306;50.210;10.628;2023-03-14T13:02:13;10.70;99.90
8537;DHT22;4306;50.210;10.628;2023-03-14T13:04:45;10.80;99.90
8537;DHT22;4306;50.210;10.628;2023-03-14T13:07:31;10.70;99.90
8537;DHT22;4306;50.210;10.628;2023-03-14T13:10:04;10.80;99.90
8537;DHT22;4306;50.210;10.628;2023-03-14T13:12:38;10.70;99.90
8537;DHT22;4306;50.210;10.628;2023-03-14T13:15:17;10.60;99.90
8537;DHT22;4306;50.210;10.628;2023-03-14T13:17:46;10.60;99.90
8537;DHT22;4306;50.210;10.628;2023-03-14T13:20:18;10.40;99.90
8537;DHT22;4306;50.210;10.628;2023-03-14T13:22:48;10.50;99.90
8537;DHT22;4306;50.210;10.628;2023-03-14T13:25:16;10.40;99.90
8537;DHT22;4306;50.210;10.628;2023-03-14T13:27:44;10.40;99.90
8537;DHT22;4306;50.210;10.628;2023-03-14T13:30:21;10.40;99.90
8537;DHT22;4306;50.210;10.628;2023-03-14T13:32:50;10.30;99.90
8537;DHT22;4306;50.210;10.628;2023-03-14T13:35:20;10.30;99.90
8537;DHT22;4306;50.210;10.628;2023-03-14T13:37:52;10.30;99.90
8537;DHT22;4306;50.210;10.628;2023-03-14T13:40:24;10.30;99.90
8537;DHT22;4306;50.210;10.628;2023-03-14T13:43:03;10.30;99.90
8537;DHT22;4306;50.210;10.628;2023-03-14T13:45:51;10.10;99.90
8537;DHT22;4306;50.210;10.628;2023-03-14T13:48:19;10.00;99.90
8537;DHT22;4306;50.210;10.628;2023-03-14T13:50:54;9.90;99.90
8537;DHT22;4306;50.210;10.628;2023-03-14T13:53:23;10.20;99.90
8537;DHT22;4306;50.210;10.628;2023-03-14T13:55:50;10.00;99.90
8537;DHT22;4306;50.210;10.628;2023-03-14T13:58:23;10.10;99.90
8537;DHT22;4306;50.210;10.628;2023-03-14T14:01:00;10.10;99.90
8537;DHT22;4306;50.210;10.628;2023-03-14T14:03:28;10.00;99.90
8537;DHT22;4306;50.210;10.628;2023-03-14T14:05:57;10.00;99.90
8537;DHT22;4306;50.210;10.628;2023-03-14T14:08:25;10.00;99.90
8537;DHT22;4306;50.210;10.628;2023-03-14T14:10:57;10.00;99.90
8537;DHT22;4306;50.210;10.628;2023-03-14T14:13:25;10.00;99.90
8537;DHT22;4306;50.210;10.628;2023-03-14T14:15:56;9.90;99.90
8537;DHT22;4306;50.210;10.628;2023-03-14T14:18:26;9.70;99.90
8537;DHT22;4306;50.210;10.628;2023-03-14T14:20:55;9.30;99.90
8537;DHT22;4306;50.210;10.628;2023-03-14T14:23:24;9.10;99.90
8537;DHT22;4306;50.210;10.628;2023-03-14T14:25:55;8.80;99.90
8537;DHT22;4306;50.210;10.628;2023-03-14T14:28:26;9.00;99.90
8537;DHT22;4306;50.210;10.628;2023-03-14T14:31:03;8.70;99.90
8537;DHT22;4306;50.210;10.628;2023-03-14T14:33:38;9.00;99.90
8537;DHT22;4306;50.210;10.628;2023-03-14T14:36:17;8.80;99.90
8537;DHT22;4306;50.210;10.628;2023-03-14T14:38:52;8.50;99.90
8537;DHT22;4306;50.210;10.628;2023-03-14T14:41:19;8.30;99.90
8537;DHT22;4306;50.210;10.628;2023-03-14T14:43:47;8.40;99.90
8537;DHT22;4306;50.210;10.628;2023-03-14T14:46:18;8.50;99.90
8537;DHT22;4306;50.210;10.628;2023-03-14T14:48:46;8.30;99.90
8537;DHT22;4306;50.210;10.628;2023-03-14T14:51:24;8.40;99.90
8537;DHT22;4306;50.210;10.628;2023-03-14T14:54:03;8.50;99.90
8537;DHT22;4306;50.210;10.628;2023-03-14T14:56:35;8.30;99.90
8537;DHT22;4306;50.210;10.628;2023-03-14T14:59:02;8.40;99.90
8537;DHT22;4306;50.210;10.628;2023-03-14T15:01:33;8.40;99.90
8537;DHT22;4306;50.210;10.628;2023-03-14T15:04:01;8.20;99.90
8537;DHT22;4306;50.210;10.628;2023-03-14T15:06:29;8.20;99.90
8537;DHT22;4306;50.210;10.628;2023-03-14T15:08:57;8.30;99.90
8537;DHT22;4306;50.210;10.628;2023-03-14T15:11:25;8.40;99.90
8537;DHT22;4306;50.210;10.628;2023-03-14T15:13:53;8.40;99.90
8537;DHT22;4306;50.210;10.628;2023-03-14T15:16:22;8.40;99.90
8537;DHT22;4306;50.210;10.628;2023-03-14T15:18:53;8.40;99.90
8537;DHT22;4306;50.210;10.628;2023-03-14T15:21:22;8.30;99.90
8537;DHT22;4306;50.210;10.628;2023-03-14T15:23:49;8.60;99.90
8537;DHT22;4306;50.210;10.628;2023-03-14T15:26:18;8.30;99.90
8537;DHT22;4306;50.210;10.628;2023-03-14T15:28:45;8.20;99.90
8537;DHT22;4306;50.210;10.628;2023-03-14T15:31:13;8.40;99.90
8537;DHT22;4306;50.210;10.628;2023-03-14T15:33:40;8.50;99.90
8537;DHT22;4306;50.210;10.628;2023-03-14T15:36:23;8.50;99.90
8537;DHT22;4306;50.210;10.628;2023-03-14T15:38:50;8.50;99.90
8537;DHT22;4306;50.210;10.628;2023-03-14T15:41:17;8.40;99.90
8537;DHT22;4306;50.210;10.628;2023-03-14T15:43:44;8.30;99.90
8537;DHT22;4306;50.210;10.628;2023-03-14T15:46:11;8.40;99.90
8537;DHT22;4306;50.210;10.628;2023-03-14T15:48:40;8.20;99.90
8537;DHT22;4306;50.210;10.628;2023-03-14T15:51:08;8.20;99.90
8537;DHT22;4306;50.210;10.628;2023-03-14T15:53:35;8.20;99.90
8537;DHT22;4306;50.210;10.628;2023-03-14T15:56:03;8.10;99.90
8537;DHT22;4306;50.210;10.628;2023-03-14T15:58:30;7.50;99.90
8537;DHT22;4306;50.210;10.628;2023-03-14T16:00:59;7.50;99.90
8537;DHT22;4306;50.210;10.628;2023-03-14T16:03:27;7.50;99.90
8537;DHT22;4306;50.210;10.628;2023-03-14T16:05:54;7.00;99.90
8537;DHT22;4306;50.210;10.628;2023-03-14T16:08:23;7.00;99.90
8537;DHT22;4306;50.210;10.628;2023-03-14T16:10:51;6.80;99.90
8537;DHT22;4306;50.210;10.628;2023-03-14T16:13:18;6.70;99.90